Time;durP1;ratioP1;P1;durP2;ratioP2;P2;SDS_P1;SDS_P2;PMS_P1;PMS_P2;Temp;Humidity;BMP_temperature;BMP_pressure;BME280_temperature;BME280_humidity;BME280_pressure;Samples;Min_cycle;Max_cycle;Signal;HPM_P1;HPM_P2
2022/09/11 00:06:05;;;;;;;7.18;5.82;;;26.00;38.40;;;;;;20757810;28;20049;-61
2022/09/11 00:16:37;;;;;;;6.93;3.80;;;26.00;38.90;;;;;;20758148;28;20053;-62
2022/09/11 00:26:41;;;;;;;6.43;2.40;;;25.90;39.20;;;;;;20757102;28;20056;-61
2022/09/11 00:36:43;;;;;;;5.35;2.35;;;25.80;38.90;;;;;;20755854;28;20082;-60
2022/09/11 00:46:48;;;;;;;;;;;25.50;39.30;;;;;;20757896;28;20343;-60
2022/09/11 00:56:51;;;;;;;5.88;3.17;;;25.20;39.10;;;;;;20758404;28;19929;-61
2022/09/11 01:06:56;;;;;;;7.00;2.83;;;25.10;39.40;;;;;;20754688;28;20132;-61
2022/09/11 01:17:20;;;;;;;5.13;2.35;;;25.10;39.60;;;;;;20752585;28;20054;-63
2022/09/11 01:27:26;;;;;;;4.45;2.30;;;25.00;39.50;;;;;;20735083;28;20405;-60
2022/09/11 01:38:04;;;;;;;5.22;2.40;;;24.80;40.00;;;;;;20751229;28;20053;-60
2022/09/11 01:48:16;;;;;;;6.07;2.22;;;24.80;39.80;;;;;;20750687;28;20137;-59
2022/09/11 01:58:25;;;;;;;5.20;2.53;;;24.70;40.20;;;;;;20750448;28;20143;-55
2022/09/11 02:08:49;;;;;;;6.63;2.33;;;24.50;40.40;;;;;;20749724;28;20057;-60
2022/09/11 02:19:02;;;;;;;4.25;2.38;;;24.30;40.20;;;;;;20750146;28;20046;-55
2022/09/11 02:29:23;;;;;;;2.78;1.60;;;24.20;40.30;;;;;;20756455;28;20060;-59
2022/09/11 02:40:22;;;;;;;6.47;1.60;;;24.00;40.80;;;;;;20765358;28;20052;-60
2022/09/11 02:50:39;;;;;;;3.63;1.75;;;24.00;40.90;;;;;;20764703;28;20093;-59
2022/09/11 03:00:52;;;;;;;4.40;1.67;;;23.90;41.00;;;;;;20763882;28;20516;-59
2022/09/11 03:10:59;;;;;;;4.35;1.73;;;23.70;41.40;;;;;;20763894;28;20058;-57
2022/09/11 03:21:05;;;;;;;4.13;2.03;;;23.50;42.10;;;;;;20745633;28;20435;-54
2022/09/11 03:31:09;;;;;;;3.85;1.85;;;23.30;42.10;;;;;;20760491;28;20103;-57
2022/09/11 03:41:15;;;;;;;6.35;2.33;;;23.20;42.40;;;;;;20760870;28;20124;-56
2022/09/11 03:51:21;;;;;;;6.28;2.08;;;23.20;42.50;;;;;;20759064;28;20136;-55
2022/09/11 04:01:25;;;;;;;3.80;1.65;;;23.10;42.40;;;;;;20759335;28;20057;-59
2022/09/11 04:11:28;;;;;;;4.20;1.60;;;23.10;42.30;;;;;;20757873;28;20104;-60
2022/09/11 04:21:33;;;;;;;6.85;1.95;;;23.00;42.60;;;;;;20757400;28;20128;-60
2022/09/11 04:31:37;;;;;;;4.45;1.70;;;23.00;42.30;;;;;;20756305;28;20055;-60
2022/09/11 04:41:40;;;;;;;7.78;1.88;;;23.00;42.40;;;;;;20756923;28;20042;-59
2022/09/11 04:51:44;;;;;;;4.90;2.13;;;23.00;42.50;;;;;;20753692;28;20061;-59
2022/09/11 05:01:46;;;;;;;5.13;1.90;;;23.00;42.90;;;;;;20755390;28;20108;-60
2022/09/11 05:11:49;;;;;;;;;;;22.90;43.10;;;;;;20754106;28;20054;-60
2022/09/11 05:21:51;;;;;;;3.77;1.37;;;22.80;43.30;;;;;;20752667;28;19929;-57
2022/09/11 05:31:54;;;;;;;3.70;1.87;;;22.60;43.50;;;;;;20751505;28;20418;-56
2022/09/11 05:41:56;;;;;;;5.00;1.70;;;22.40;44.30;;;;;;20751394;28;20050;-61
2022/09/11 05:51:58;;;;;;;4.40;1.98;;;22.10;44.50;;;;;;20750723;28;20081;-56
2022/09/11 06:02:01;;;;;;;4.83;2.23;;;22.10;44.50;;;;;;20751115;28;20046;-59
2022/09/11 06:12:03;;;;;;;;;;;22.10;44.50;;;;;;20750978;28;20402;-56
2022/09/11 06:22:05;;;;;;;7.03;2.40;;;22.10;44.70;;;;;;20749236;28;19921;-58
2022/09/11 06:32:07;;;;;;;4.22;1.88;;;22.20;44.60;;;;;;20748422;28;20045;-58
2022/09/11 06:42:09;;;;;;;5.03;1.80;;;22.30;44.50;;;;;;20747905;28;20137;-58
2022/09/11 06:52:12;;;;;;;8.55;2.03;;;22.30;44.60;;;;;;20747914;28;20490;-57
2022/09/11 07:02:14;;;;;;;5.13;2.00;;;22.50;44.30;;;;;;20747341;28;20050;-55
2022/09/11 07:12:16;;;;;;;5.70;2.63;;;22.70;44.00;;;;;;20749813;28;20116;-61
2022/09/11 07:22:18;;;;;;;4.38;1.73;;;22.90;44.00;;;;;;20761439;28;20486;-60
2022/09/11 07:32:21;;;;;;;;;;;23.30;43.60;;;;;;20761016;28;20470;-60
2022/09/11 07:42:23;;;;;;;5.63;1.92;;;23.60;43.30;;;;;;20759976;28;20288;-57
2022/09/11 07:52:25;;;;;;;4.50;1.63;;;23.90;44.70;;;;;;20760218;28;20062;-57
2022/09/11 08:02:27;;;;;;;4.47;1.67;;;24.20;45.20;;;;;;20758689;28;20407;-63
2022/09/11 08:12:31;;;;;;;6.73;2.30;;;24.60;44.90;;;;;;20756556;28;20058;-55
2022/09/11 08:22:33;;;;;;;6.10;2.58;;;24.90;46.00;;;;;;20756650;28;20374;-60
2022/09/11 08:32:35;;;;;;;7.53;1.80;;;25.20;47.70;;;;;;20754978;28;20153;-59
2022/09/11 08:42:42;;;;;;;4.87;2.23;;;25.40;47.20;;;;;;20754989;28;20295;-55
2022/09/11 08:52:47;;;;;;;3.90;1.80;;;25.80;45.80;;;;;;20755166;28;20050;-60
2022/09/11 09:03:08;;;;;;;4.82;4.10;;;26.00;45.40;;;;;;20753215;28;20050;-56
2022/09/11 09:13:31;;;;;;;4.28;2.03;;;26.10;44.80;;;;;;20753686;28;20140;-61
2022/09/11 09:23:53;;;;;;;6.53;2.30;;;26.30;44.20;;;;;;20753354;28;20328;-61
2022/09/11 09:34:01;;;;;;;6.60;3.17;;;26.50;43.90;;;;;;20750756;28;20058;-56
2022/09/11 09:44:30;;;;;;;5.78;2.30;;;26.70;43.50;;;;;;20751460;28;20479;-55
2022/09/11 09:54:35;;;;;;;3.88;2.15;;;26.90;43.30;;;;;;20750687;28;20054;-63
2022/09/11 10:04:37;;;;;;;8.10;2.75;;;27.10;43.00;;;;;;20750522;28;20049;-61
2022/09/11 10:14:49;;;;;;;8.15;2.13;;;27.20;42.20;;;;;;20748904;28;20050;-56
2022/09/11 10:25:02;;;;;;;4.70;2.20;;;27.40;41.80;;;;;;20749353;28;20453;-59
2022/09/11 10:35:08;;;;;;;6.38;3.13;;;27.70;41.10;;;;;;20748063;28;20082;-56
2022/09/11 10:45:15;;;;;;;7.07;2.22;;;28.00;40.10;;;;;;20748723;28;20084;-61
2022/09/11 10:55:19;;;;;;;7.10;2.42;;;28.40;39.00;;;;;;20763578;28;20465;-60
2022/09/11 11:05:45;;;;;;;5.32;2.17;;;28.70;39.00;;;;;;20762924;28;20144;-59
2022/09/11 11:15:56;;;;;;;4.05;2.38;;;28.90;38.40;;;;;;20763107;28;20100;-60
2022/09/11 11:26:20;;;;;;;6.28;1.70;;;29.10;38.00;;;;;;20761134;28;20457;-64
2022/09/11 11:36:56;;;;;;;4.45;2.40;;;29.30;37.20;;;;;;20760742;28;20461;-60
2022/09/11 11:47:03;;;;;;;9.70;1.80;;;29.70;35.80;;;;;;20749384;28;20050;-60
2022/09/11 11:57:12;;;;;;;4.38;2.28;;;30.00;34.80;;;;;;20758444;28;20052;-56
2022/09/11 12:07:31;;;;;;;3.65;1.73;;;30.30;34.50;;;;;;20758878;28;20058;-56
2022/09/11 12:17:36;;;;;;;4.63;1.75;;;30.60;33.60;;;;;;20757189;28;20084;-55
2022/09/11 12:27:39;;;;;;;3.53;1.70;;;30.60;32.80;;;;;;20756502;28;20050;-55
2022/09/11 12:37:44;;;;;;;5.32;2.63;;;30.90;32.30;;;;;;20755670;28;20482;-55
2022/09/11 12:47:46;;;;;;;4.85;1.98;;;31.10;30.10;;;;;;20755059;28;20081;-59
2022/09/11 12:57:50;;;;;;;6.18;1.80;;;31.40;29.10;;;;;;20755472;28;20081;-57
2022/09/11 13:07:58;;;;;;;3.42;1.45;;;31.50;29.50;;;;;;20753807;28;20054;-56
2022/09/11 13:18:14;;;;;;;4.85;1.63;;;31.80;28.20;;;;;;20751587;28;20050;-61
2022/09/11 13:28:16;;;;;;;3.40;1.70;;;31.90;28.40;;;;;;20750912;28;20058;-61
2022/09/11 13:38:29;;;;;;;3.30;1.10;;;32.10;28.00;;;;;;20751229;28;20108;-61
2022/09/11 13:48:32;;;;;;;3.80;1.67;;;32.10;27.30;;;;;;20749422;28;20100;-57
2022/09/11 13:58:37;;;;;;;4.10;1.33;;;32.30;26.20;;;;;;20749575;28;20058;-59
2022/09/11 14:08:55;;;;;;;4.10;2.00;;;32.30;25.60;;;;;;20749692;28;20050;-62
2022/09/11 14:19:01;;;;;;;2.78;1.20;;;32.60;26.40;;;;;;20749178;28;20486;-61
2022/09/11 14:29:21;;;;;;;6.57;4.57;;;32.60;25.20;;;;;;20747717;28;20050;-62
2022/09/11 14:39:40;;;;;;;3.70;2.95;;;32.70;25.10;;;;;;20747954;28;20096;-56
2022/09/11 14:49:43;;;;;;;5.28;1.80;;;32.80;25.10;;;;;;20747699;28;20054;-55
2022/09/11 14:59:45;;;;;;;2.92;1.02;;;33.00;23.60;;;;;;20746945;28;20089;-55
2022/09/11 15:09:46;;;;;;;5.40;1.30;;;33.10;23.30;;;;;;20746272;28;20108;-55
2022/09/11 15:19:49;;;;;;;6.28;1.30;;;33.10;22.70;;;;;;20746388;28;20042;-61
2022/09/11 15:29:51;;;;;;;8.75;1.52;;;33.20;22.90;;;;;;20746158;28;20054;-56
2022/09/11 15:39:52;;;;;;;6.80;1.98;;;33.30;23.20;;;;;;20740239;28;20500;-60
2022/09/11 15:49:54;;;;;;;4.28;1.23;;;33.30;23.30;;;;;;20760357;28;20505;-58
2022/09/11 15:59:56;;;;;;;6.85;2.03;;;33.30;23.30;;;;;;20758550;28;20099;-60
2022/09/11 16:09:57;;;;;;;3.72;1.42;;;33.20;23.80;;;;;;20758066;28;20140;-58
2022/09/11 16:19:59;;;;;;;6.93;1.85;;;33.10;23.80;;;;;;20757552;28;20107;-60
2022/09/11 16:30:01;;;;;;;5.95;1.80;;;33.10;24.30;;;;;;20756096;28;20061;-58
2022/09/11 16:40:03;;;;;;;5.47;2.05;;;33.10;24.50;;;;;;20756083;28;20053;-58
2022/09/11 16:50:06;;;;;;;6.60;1.90;;;33.10;24.10;;;;;;20754316;28;20487;-55
2022/09/11 17:00:09;;;;;;;8.10;2.00;;;33.00;23.70;;;;;;20754345;28;20478;-55
2022/09/11 17:10:10;;;;;;;8.13;1.73;;;32.90;24.00;;;;;;20754320;28;20060;-62
2022/09/11 17:20:13;;;;;;;5.50;1.88;;;32.80;23.40;;;;;;20752733;28;20046;-59
2022/09/11 17:30:16;;;;;;;8.27;2.40;;;32.60;23.60;;;;;;20750969;28;20128;-62
2022/09/11 17:40:18;;;;;;;11.15;4.07;;;32.50;24.00;;;;;;20750425;28;20050;-64
2022/09/11 17:50:20;;;;;;;9.82;4.30;;;32.30;24.40;;;;;;20750452;28;20512;-57
2022/09/11 18:00:21;;;;;;;12.25;3.88;;;32.10;25.20;;;;;;20749622;28;20189;-57
2022/09/11 18:10:23;;;;;;;11.35;3.65;;;31.90;25.20;;;;;;20749521;28;20386;-58
2022/09/11 18:20:25;;;;;;;14.05;5.25;;;31.60;25.90;;;;;;20749073;28;20057;-62
2022/09/11 18:30:26;;;;;;;13.15;5.85;;;31.50;26.00;;;;;;20748358;28;20137;-55
2022/09/11 18:40:28;;;;;;;11.80;5.80;;;31.30;26.50;;;;;;20749294;28;20475;-62
2022/09/11 18:50:30;;;;;;;31.58;8.18;;;31.10;26.40;;;;;;20749365;28;20478;-61
2022/09/11 19:00:31;;;;;;;19.08;6.45;;;31.00;27.20;;;;;;20747329;28;20133;-55
2022/09/11 19:10:33;;;;;;;19.40;6.88;;;30.70;28.00;;;;;;20753528;28;20053;-61
2022/09/11 19:20:34;;;;;;;18.83;5.55;;;30.50;28.50;;;;;;20764137;28;20049;-62
2022/09/11 19:30:35;;;;;;;11.85;5.03;;;30.30;29.10;;;;;;20761648;28;20068;-63
2022/09/11 19:40:37;;;;;;;18.13;6.35;;;30.10;29.80;;;;;;20760537;28;20168;-64
2022/09/11 19:50:44;;;;;;;13.73;5.05;;;29.90;30.40;;;;;;20760873;28;20505;-63
2022/09/11 20:00:45;;;;;;;19.30;8.93;;;29.80;30.70;;;;;;20759824;28;20056;-55
2022/09/11 20:10:47;;;;;;;38.08;28.58;;;29.60;31.70;;;;;;20758102;28;20054;-53
2022/09/11 20:20:49;;;;;;;19.25;6.70;;;29.40;31.90;;;;;;20758692;28;20054;-53
2022/09/11 20:30:50;;;;;;;15.68;5.88;;;29.20;32.70;;;;;;20756498;28;20081;-54
2022/09/11 20:40:51;;;;;;;17.13;5.25;;;29.00;32.70;;;;;;20756935;28;20081;-57
2022/09/11 20:50:53;;;;;;;23.25;9.23;;;28.90;32.80;;;;;;20756321;28;20521;-62
2022/09/11 21:00:54;;;;;;;13.63;4.95;;;28.80;32.90;;;;;;20755259;28;20089;-57
2022/09/11 21:11:00;;;;;;;44.10;28.50;;;28.60;31.90;;;;;;20753743;28;20081;-62
2022/09/11 21:21:02;;;;;;;14.85;8.25;;;28.60;32.30;;;;;;20753430;28;20391;-61
2022/09/11 21:31:03;;;;;;;16.60;7.78;;;28.40;32.80;;;;;;20749378;28;20058;-61
2022/09/11 21:41:07;;;;;;;11.30;5.57;;;28.40;33.20;;;;;;20749068;28;20050;-58
2022/09/11 21:51:15;;;;;;;14.10;4.93;;;28.20;33.30;;;;;;20748175;28;20089;-57
2022/09/11 22:01:19;;;;;;;10.02;5.25;;;28.20;33.10;;;;;;20748015;28;20517;-60
2022/09/11 22:11:20;;;;;;;15.15;6.00;;;28.20;33.10;;;;;;20746838;28;20157;-58
2022/09/11 22:21:22;;;;;;;15.65;6.07;;;28.00;34.10;;;;;;20747337;28;20125;-62
2022/09/11 22:31:25;;;;;;;14.32;6.03;;;28.00;34.10;;;;;;20704151;28;1220448;-60
2022/09/11 22:41:26;;;;;;;15.52;5.15;;;27.90;34.00;;;;;;20748295;28;20077;-60
2022/09/11 22:51:28;;;;;;;15.80;4.70;;;27.90;32.50;;;;;;20763180;28;20056;-62
2022/09/11 23:01:30;;;;;;;12.05;3.58;;;28.00;31.90;;;;;;20763490;28;20045;-60
2022/09/11 23:11:32;;;;;;;18.38;5.78;;;28.10;31.70;;;;;;20762915;28;20056;-60
2022/09/11 23:21:35;;;;;;;14.35;3.85;;;28.10;32.10;;;;;;20762390;28;20081;-61
2022/09/11 23:31:36;;;;;;;15.10;6.38;;;28.10;32.30;;;;;;20761038;28;20077;-58
2022/09/11 23:41:37;;;;;;;23.30;3.97;;;28.20;33.10;;;;;;20761584;28;20058;-61
2022/09/11 23:51:39;;;;;;;15.38;3.47;;;28.20;33.70;;;;;;20760112;28;20053;-59
